sensor_id;sensor_type;location;lat;lon;timestamp;temperature;humidity
21163;DHT22;10739;52.198;20.908;2022-11-20T00:01:19;-4.40;99.90
21163;DHT22;10739;52.198;20.908;2022-11-20T00:03:47;-4.40;99.90
21163;DHT22;10739;52.198;20.908;2022-11-20T00:06:16;-4.40;99.90
21163;DHT22;10739;52.198;20.908;2022-11-20T00:08:44;-4.50;99.90
21163;DHT22;10739;52.198;20.908;2022-11-20T00:11:17;-4.50;99.90
21163;DHT22;10739;52.198;20.908;2022-11-20T00:13:47;-4.50;99.90
21163;DHT22;10739;52.198;20.908;2022-11-20T00:16:17;-4.50;99.90
21163;DHT22;10739;52.198;20.908;2022-11-20T00:18:46;-4.50;99.90
21163;DHT22;10739;52.198;20.908;2022-11-20T00:21:24;-4.50;99.90
21163;DHT22;10739;52.198;20.908;2022-11-20T00:23:53;-4.50;99.90
21163;DHT22;10739;52.198;20.908;2022-11-20T00:26:22;-4.40;99.90
21163;DHT22;10739;52.198;20.908;2022-11-20T00:28:54;-4.50;99.90
21163;DHT22;10739;52.198;20.908;2022-11-20T00:31:22;-4.40;99.90
21163;DHT22;10739;52.198;20.908;2022-11-20T00:33:49;-4.30;99.90
21163;DHT22;10739;52.198;20.908;2022-11-20T00:36:18;-4.30;99.90
21163;DHT22;10739;52.198;20.908;2022-11-20T00:38:46;-4.20;99.90
21163;DHT22;10739;52.198;20.908;2022-11-20T00:41:16;-4.30;99.90
21163;DHT22;10739;52.198;20.908;2022-11-20T00:43:43;-4.30;99.90
21163;DHT22;10739;52.198;20.908;2022-11-20T00:46:15;-4.20;99.90
21163;DHT22;10739;52.198;20.908;2022-11-20T00:48:43;-4.10;99.90
21163;DHT22;10739;52.198;20.908;2022-11-20T00:51:12;-4.10;99.90
21163;DHT22;10739;52.198;20.908;2022-11-20T00:53:40;-4.10;99.90
21163;DHT22;10739;52.198;20.908;2022-11-20T00:56:10;-4.10;99.90
21163;DHT22;10739;52.198;20.908;2022-11-20T00:58:39;-4.10;99.90
21163;DHT22;10739;52.198;20.908;2022-11-20T01:03:47;-4.00;99.90
21163;DHT22;10739;52.198;20.908;2022-11-20T01:06:21;-4.10;99.90
21163;DHT22;10739;52.198;20.908;2022-11-20T01:09:07;-4.00;99.90
21163;DHT22;10739;52.198;20.908;2022-11-20T01:11:39;-4.10;99.90
21163;DHT22;10739;52.198;20.908;2022-11-20T01:14:13;-4.10;99.90
21163;DHT22;10739;52.198;20.908;2022-11-20T01:16:46;-4.20;99.90
21163;DHT22;10739;52.198;20.908;2022-11-20T01:19:20;-4.10;99.90
21163;DHT22;10739;52.198;20.908;2022-11-20T01:21:53;-4.10;99.90
21163;DHT22;10739;52.198;20.908;2022-11-20T01:24:21;-4.10;99.90
21163;DHT22;10739;52.198;20.908;2022-11-20T01:26:49;-4.20;99.90
21163;DHT22;10739;52.198;20.908;2022-11-20T01:29:22;-4.20;99.90
21163;DHT22;10739;52.198;20.908;2022-11-20T01:31:49;-4.10;99.90
21163;DHT22;10739;52.198;20.908;2022-11-20T01:34:18;-4.10;99.90
21163;DHT22;10739;52.198;20.908;2022-11-20T01:36:46;-4.10;99.90
21163;DHT22;10739;52.198;20.908;2022-11-20T01:39:14;-4.10;99.90
21163;DHT22;10739;52.198;20.908;2022-11-20T01:41:45;-4.10;99.90
21163;DHT22;10739;52.198;20.908;2022-11-20T01:45:00;-4.10;99.90
21163;DHT22;10739;52.198;20.908;2022-11-20T01:47:36;-4.00;99.90
21163;DHT22;10739;52.198;20.908;2022-11-20T01:52:40;-4.10;99.90
21163;DHT22;10739;52.198;20.908;2022-11-20T01:55:22;-4.00;99.90
21163;DHT22;10739;52.198;20.908;2022-11-20T01:57:55;-4.10;99.90
21163;DHT22;10739;52.198;20.908;2022-11-20T02:00:22;-4.10;99.90
21163;DHT22;10739;52.198;20.908;2022-11-20T02:02:53;-4.00;99.90
21163;DHT22;10739;52.198;20.908;2022-11-20T02:05:31;-3.90;99.90
21163;DHT22;10739;52.198;20.908;2022-11-20T02:08:03;-4.00;99.90
21163;DHT22;10739;52.198;20.908;2022-11-20T02:10:31;-3.90;99.90
21163;DHT22;10739;52.198;20.908;2022-11-20T02:12:59;-3.90;99.90
21163;DHT22;10739;52.198;20.908;2022-11-20T02:15:44;-3.90;99.90
21163;DHT22;10739;52.198;20.908;2022-11-20T02:18:14;-3.90;99.90
21163;DHT22;10739;52.198;20.908;2022-11-20T02:20:44;-3.90;99.90
21163;DHT22;10739;52.198;20.908;2022-11-20T02:23:20;-4.00;99.90
21163;DHT22;10739;52.198;20.908;2022-11-20T02:25:51;-4.00;99.90
21163;DHT22;10739;52.198;20.908;2022-11-20T02:28:19;-3.90;99.90
21163;DHT22;10739;52.198;20.908;2022-11-20T02:30:45;-4.00;99.90
21163;DHT22;10739;52.198;20.908;2022-11-20T02:33:12;-4.00;99.90
21163;DHT22;10739;52.198;20.908;2022-11-20T02:35:43;-4.00;99.90
21163;DHT22;10739;52.198;20.908;2022-11-20T02:38:14;-4.00;99.90
21163;DHT22;10739;52.198;20.908;2022-11-20T02:40:41;-3.90;99.90
21163;DHT22;10739;52.198;20.908;2022-11-20T02:43:08;-3.90;99.90
21163;DHT22;10739;52.198;20.908;2022-11-20T02:45:35;-3.90;99.90
21163;DHT22;10739;52.198;20.908;2022-11-20T02:48:01;-4.00;99.90
21163;DHT22;10739;52.198;20.908;2022-11-20T02:50:28;-4.00;99.90
21163;DHT22;10739;52.198;20.908;2022-11-20T02:52:54;-3.90;99.90
21163;DHT22;10739;52.198;20.908;2022-11-20T02:55:20;-3.90;99.90
21163;DHT22;10739;52.198;20.908;2022-11-20T02:57:46;-4.00;99.90
21163;DHT22;10739;52.198;20.908;2022-11-20T03:00:13;-4.00;99.90
21163;DHT22;10739;52.198;20.908;2022-11-20T03:02:39;-4.00;99.90
21163;DHT22;10739;52.198;20.908;2022-11-20T03:05:06;-4.10;99.90
21163;DHT22;10739;52.198;20.908;2022-11-20T03:07:32;-4.10;99.90
21163;DHT22;10739;52.198;20.908;2022-11-20T03:09:58;-4.20;99.90
21163;DHT22;10739;52.198;20.908;2022-11-20T03:12:25;-4.30;99.90
21163;DHT22;10739;52.198;20.908;2022-11-20T03:14:51;-4.30;99.90
21163;DHT22;10739;52.198;20.908;2022-11-20T03:17:17;-4.30;99.90
21163;DHT22;10739;52.198;20.908;2022-11-20T03:19:43;-4.40;99.90
21163;DHT22;10739;52.198;20.908;2022-11-20T03:22:10;-4.30;99.90
21163;DHT22;10739;52.198;20.908;2022-11-20T03:24:36;-4.40;99.90
21163;DHT22;10739;52.198;20.908;2022-11-20T03:27:02;-4.40;99.90
21163;DHT22;10739;52.198;20.908;2022-11-20T03:29:29;-4.50;99.90
21163;DHT22;10739;52.198;20.908;2022-11-20T03:31:55;-4.60;99.90
21163;DHT22;10739;52.198;20.908;2022-11-20T03:34:21;-4.50;99.90
21163;DHT22;10739;52.198;20.908;2022-11-20T03:36:47;-4.60;99.90
21163;DHT22;10739;52.198;20.908;2022-11-20T03:39:14;-4.60;99.90
21163;DHT22;10739;52.198;20.908;2022-11-20T03:41:41;-4.60;99.90
21163;DHT22;10739;52.198;20.908;2022-11-20T03:44:09;-4.70;99.90
21163;DHT22;10739;52.198;20.908;2022-11-20T03:46:37;-4.70;99.90
21163;DHT22;10739;52.198;20.908;2022-11-20T03:49:04;-4.70;99.90
21163;DHT22;10739;52.198;20.908;2022-11-20T03:51:33;-4.70;99.90
21163;DHT22;10739;52.198;20.908;2022-11-20T03:54:02;-4.70;99.90
21163;DHT22;10739;52.198;20.908;2022-11-20T03:56:35;-4.70;99.90
21163;DHT22;10739;52.198;20.908;2022-11-20T03:59:04;-4.70;99.90
21163;DHT22;10739;52.198;20.908;2022-11-20T04:01:35;-4.70;99.90
21163;DHT22;10739;52.198;20.908;2022-11-20T04:04:12;-4.70;99.90
21163;DHT22;10739;52.198;20.908;2022-11-20T04:06:42;-4.70;99.90
21163;DHT22;10739;52.198;20.908;2022-11-20T04:09:08;-4.70;99.90
21163;DHT22;10739;52.198;20.908;2022-11-20T04:11:36;-4.80;99.90
21163;DHT22;10739;52.198;20.908;2022-11-20T04:14:06;-4.70;99.90
21163;DHT22;10739;52.198;20.908;2022-11-20T04:16:39;-4.80;99.90
21163;DHT22;10739;52.198;20.908;2022-11-20T04:19:10;-4.80;99.90
21163;DHT22;10739;52.198;20.908;2022-11-20T04:21:38;-4.80;99.90
21163;DHT22;10739;52.198;20.908;2022-11-20T04:24:04;-4.70;99.90
21163;DHT22;10739;52.198;20.908;2022-11-20T04:26:31;-4.80;99.90
21163;DHT22;10739;52.198;20.908;2022-11-20T04:28:58;-4.80;99.90
21163;DHT22;10739;52.198;20.908;2022-11-20T04:31:26;-4.80;99.90
21163;DHT22;10739;52.198;20.908;2022-11-20T04:33:54;-4.80;99.90
21163;DHT22;10739;52.198;20.908;2022-11-20T04:36:23;-4.80;99.90
21163;DHT22;10739;52.198;20.908;2022-11-20T04:38:52;-4.70;99.90
21163;DHT22;10739;52.198;20.908;2022-11-20T04:41:21;-4.80;99.90
21163;DHT22;10739;52.198;20.908;2022-11-20T04:43:50;-4.80;99.90
21163;DHT22;10739;52.198;20.908;2022-11-20T04:46:20;-4.80;99.90
21163;DHT22;10739;52.198;20.908;2022-11-20T04:48:47;-4.90;99.90
21163;DHT22;10739;52.198;20.908;2022-11-20T04:51:13;-4.90;99.90
21163;DHT22;10739;52.198;20.908;2022-11-20T04:53:40;-4.90;99.90
21163;DHT22;10739;52.198;20.908;2022-11-20T04:56:09;-5.00;99.90
21163;DHT22;10739;52.198;20.908;2022-11-20T04:58:36;-5.00;99.90
21163;DHT22;10739;52.198;20.908;2022-11-20T05:01:11;-5.00;99.90
21163;DHT22;10739;52.198;20.908;2022-11-20T05:03:40;-5.00;99.90
21163;DHT22;10739;52.198;20.908;2022-11-20T05:06:08;-5.00;99.90
21163;DHT22;10739;52.198;20.908;2022-11-20T05:08:35;-5.00;99.90
21163;DHT22;10739;52.198;20.908;2022-11-20T05:11:04;-5.00;99.90
21163;DHT22;10739;52.198;20.908;2022-11-20T05:13:32;-5.00;99.90
21163;DHT22;10739;52.198;20.908;2022-11-20T05:16:07;-4.90;99.90
21163;DHT22;10739;52.198;20.908;2022-11-20T05:18:35;-4.90;99.90
21163;DHT22;10739;52.198;20.908;2022-11-20T05:21:03;-5.00;99.90
21163;DHT22;10739;52.198;20.908;2022-11-20T05:23:30;-4.90;99.90
21163;DHT22;10739;52.198;20.908;2022-11-20T05:25:58;-5.00;99.90
21163;DHT22;10739;52.198;20.908;2022-11-20T05:28:26;-5.00;99.90
21163;DHT22;10739;52.198;20.908;2022-11-20T05:30:54;-5.10;99.90
21163;DHT22;10739;52.198;20.908;2022-11-20T05:33:21;-5.20;99.90
21163;DHT22;10739;52.198;20.908;2022-11-20T05:35:48;-5.20;99.90
21163;DHT22;10739;52.198;20.908;2022-11-20T05:38:14;-5.20;99.90
21163;DHT22;10739;52.198;20.908;2022-11-20T05:40:41;-5.20;99.90
21163;DHT22;10739;52.198;20.908;2022-11-20T05:43:07;-5.30;99.90
21163;DHT22;10739;52.198;20.908;2022-11-20T05:45:33;-5.30;99.90
21163;DHT22;10739;52.198;20.908;2022-11-20T05:48:00;-5.30;99.90
21163;DHT22;10739;52.198;20.908;2022-11-20T05:50:27;-5.30;99.90
21163;DHT22;10739;52.198;20.908;2022-11-20T05:52:54;-5.40;99.90
21163;DHT22;10739;52.198;20.908;2022-11-20T05:55:20;-5.40;99.90
21163;DHT22;10739;52.198;20.908;2022-11-20T05:57:47;-5.40;99.90
21163;DHT22;10739;52.198;20.908;2022-11-20T06:00:14;-5.50;99.90
21163;DHT22;10739;52.198;20.908;2022-11-20T06:02:40;-5.50;99.90
21163;DHT22;10739;52.198;20.908;2022-11-20T06:05:07;-5.50;99.90
21163;DHT22;10739;52.198;20.908;2022-11-20T06:07:34;-5.50;99.90
21163;DHT22;10739;52.198;20.908;2022-11-20T06:10:00;-5.50;99.90
21163;DHT22;10739;52.198;20.908;2022-11-20T06:12:26;-5.60;99.90
21163;DHT22;10739;52.198;20.908;2022-11-20T06:14:52;-5.60;99.90
21163;DHT22;10739;52.198;20.908;2022-11-20T06:17:18;-5.70;99.90
21163;DHT22;10739;52.198;20.908;2022-11-20T06:19:45;-5.60;99.90
21163;DHT22;10739;52.198;20.908;2022-11-20T06:22:11;-5.70;99.90
21163;DHT22;10739;52.198;20.908;2022-11-20T06:24:37;-5.60;99.90
21163;DHT22;10739;52.198;20.908;2022-11-20T06:27:03;-5.70;99.90
21163;DHT22;10739;52.198;20.908;2022-11-20T06:29:29;-5.60;99.90
21163;DHT22;10739;52.198;20.908;2022-11-20T06:31:56;-5.60;99.90
21163;DHT22;10739;52.198;20.908;2022-11-20T06:34:22;-5.60;99.90
21163;DHT22;10739;52.198;20.908;2022-11-20T06:36:48;-5.50;99.90
21163;DHT22;10739;52.198;20.908;2022-11-20T06:39:15;-5.60;99.90
21163;DHT22;10739;52.198;20.908;2022-11-20T06:41:41;-5.60;99.90
21163;DHT22;10739;52.198;20.908;2022-11-20T06:44:07;-5.60;99.90
21163;DHT22;10739;52.198;20.908;2022-11-20T06:46:34;-5.50;99.90
21163;DHT22;10739;52.198;20.908;2022-11-20T06:49:00;-5.50;99.90
21163;DHT22;10739;52.198;20.908;2022-11-20T06:51:26;-5.60;99.90
21163;DHT22;10739;52.198;20.908;2022-11-20T06:53:53;-5.60;99.90
21163;DHT22;10739;52.198;20.908;2022-11-20T06:56:19;-5.60;99.90
21163;DHT22;10739;52.198;20.908;2022-11-20T06:58:45;-5.60;99.90
21163;DHT22;10739;52.198;20.908;2022-11-20T07:01:14;-5.60;99.90
21163;DHT22;10739;52.198;20.908;2022-11-20T07:03:41;-5.50;99.90
21163;DHT22;10739;52.198;20.908;2022-11-20T07:06:08;-5.60;99.90
21163;DHT22;10739;52.198;20.908;2022-11-20T07:08:34;-5.50;99.90
21163;DHT22;10739;52.198;20.908;2022-11-20T07:11:05;-5.50;99.90
21163;DHT22;10739;52.198;20.908;2022-11-20T07:13:33;-5.40;99.90
21163;DHT22;10739;52.198;20.908;2022-11-20T07:16:04;-5.40;99.90
21163;DHT22;10739;52.198;20.908;2022-11-20T07:18:32;-5.30;99.90
21163;DHT22;10739;52.198;20.908;2022-11-20T07:21:06;-5.20;99.90
21163;DHT22;10739;52.198;20.908;2022-11-20T07:23:34;-4.50;99.90
21163;DHT22;10739;52.198;20.908;2022-11-20T07:26:05;-5.20;99.90
21163;DHT22;10739;52.198;20.908;2022-11-20T07:28:36;-5.10;99.90
21163;DHT22;10739;52.198;20.908;2022-11-20T07:31:03;-5.00;99.90
21163;DHT22;10739;52.198;20.908;2022-11-20T07:33:30;-4.90;99.90
21163;DHT22;10739;52.198;20.908;2022-11-20T07:35:59;-4.80;99.90
21163;DHT22;10739;52.198;20.908;2022-11-20T07:38:25;-4.70;99.90
21163;DHT22;10739;52.198;20.908;2022-11-20T07:40:55;-4.70;99.90
21163;DHT22;10739;52.198;20.908;2022-11-20T07:43:23;-4.70;99.90
21163;DHT22;10739;52.198;20.908;2022-11-20T07:45:51;-4.70;99.90
21163;DHT22;10739;52.198;20.908;2022-11-20T07:48:17;-4.60;99.90
21163;DHT22;10739;52.198;20.908;2022-11-20T07:50:43;-4.50;99.90
21163;DHT22;10739;52.198;20.908;2022-11-20T07:53:10;-4.50;99.90
21163;DHT22;10739;52.198;20.908;2022-11-20T07:55:38;-4.40;99.90
21163;DHT22;10739;52.198;20.908;2022-11-20T07:58:04;-4.40;99.90
21163;DHT22;10739;52.198;20.908;2022-11-20T08:00:30;-4.40;99.90
21163;DHT22;10739;52.198;20.908;2022-11-20T08:02:56;-4.30;99.90
21163;DHT22;10739;52.198;20.908;2022-11-20T08:05:23;-4.20;99.90
21163;DHT22;10739;52.198;20.908;2022-11-20T08:07:49;-4.20;99.90
21163;DHT22;10739;52.198;20.908;2022-11-20T08:10:16;-4.10;99.90
21163;DHT22;10739;52.198;20.908;2022-11-20T08:12:50;-4.10;99.90
21163;DHT22;10739;52.198;20.908;2022-11-20T08:15:38;-4.00;99.90
21163;DHT22;10739;52.198;20.908;2022-11-20T08:18:07;-3.90;99.90
21163;DHT22;10739;52.198;20.908;2022-11-20T08:20:36;-3.80;99.90
21163;DHT22;10739;52.198;20.908;2022-11-20T08:23:07;-3.70;99.90
21163;DHT22;10739;52.198;20.908;2022-11-20T08:25:35;-3.60;99.90
21163;DHT22;10739;52.198;20.908;2022-11-20T08:28:04;-3.50;99.90
21163;DHT22;10739;52.198;20.908;2022-11-20T08:30:35;-3.40;99.90
21163;DHT22;10739;52.198;20.908;2022-11-20T08:33:08;-3.10;99.90
21163;DHT22;10739;52.198;20.908;2022-11-20T08:35:35;-3.00;99.90
21163;DHT22;10739;52.198;20.908;2022-11-20T08:38:03;-2.70;99.90
21163;DHT22;10739;52.198;20.908;2022-11-20T08:40:30;-2.60;99.90
21163;DHT22;10739;52.198;20.908;2022-11-20T08:42:58;-2.70;99.90
21163;DHT22;10739;52.198;20.908;2022-11-20T08:45:25;-2.40;99.90
21163;DHT22;10739;52.198;20.908;2022-11-20T08:47:51;-2.30;99.90
21163;DHT22;10739;52.198;20.908;2022-11-20T08:50:18;-1.60;99.90
21163;DHT22;10739;52.198;20.908;2022-11-20T08:52:44;-0.60;99.90
21163;DHT22;10739;52.198;20.908;2022-11-20T08:55:11;0.30;99.90
21163;DHT22;10739;52.198;20.908;2022-11-20T08:57:37;1.00;99.90
21163;DHT22;10739;52.198;20.908;2022-11-20T09:00:05;1.40;99.90
21163;DHT22;10739;52.198;20.908;2022-11-20T09:02:33;1.60;99.90
21163;DHT22;10739;52.198;20.908;2022-11-20T09:04:59;1.60;99.90
21163;DHT22;10739;52.198;20.908;2022-11-20T09:07:28;1.80;99.90
21163;DHT22;10739;52.198;20.908;2022-11-20T09:09:55;2.10;99.90
21163;DHT22;10739;52.198;20.908;2022-11-20T09:12:21;1.60;99.90
21163;DHT22;10739;52.198;20.908;2022-11-20T09:14:48;0.80;99.90
21163;DHT22;10739;52.198;20.908;2022-11-20T09:17:14;0.00;99.90
21163;DHT22;10739;52.198;20.908;2022-11-20T09:19:40;-0.20;99.90
21163;DHT22;10739;52.198;20.908;2022-11-20T09:22:07;-0.50;99.90
21163;DHT22;10739;52.198;20.908;2022-11-20T09:24:33;-0.70;99.90
21163;DHT22;10739;52.198;20.908;2022-11-20T09:27:02;-0.80;99.90
21163;DHT22;10739;52.198;20.908;2022-11-20T09:29:29;-1.10;99.90
21163;DHT22;10739;52.198;20.908;2022-11-20T09:31:56;-1.00;99.90
21163;DHT22;10739;52.198;20.908;2022-11-20T09:34:22;-1.10;99.90
21163;DHT22;10739;52.198;20.908;2022-11-20T09:36:48;-1.10;99.90
21163;DHT22;10739;52.198;20.908;2022-11-20T09:39:14;-1.30;99.90
21163;DHT22;10739;52.198;20.908;2022-11-20T09:47:14;-1.40;99.90
21163;DHT22;10739;52.198;20.908;2022-11-20T09:53:06;-1.40;99.90
21163;DHT22;10739;52.198;20.908;2022-11-20T09:55:40;-1.40;99.90
21163;DHT22;10739;52.198;20.908;2022-11-20T09:58:13;-1.10;99.90
21163;DHT22;10739;52.198;20.908;2022-11-20T10:00:47;-1.10;99.90
21163;DHT22;10739;52.198;20.908;2022-11-20T10:03:20;-1.00;99.90
21163;DHT22;10739;52.198;20.908;2022-11-20T10:06:01;-1.20;99.90
21163;DHT22;10739;52.198;20.908;2022-11-20T10:08:47;-1.20;99.90
21163;DHT22;10739;52.198;20.908;2022-11-20T10:20:16;-1.20;99.90
21163;DHT22;10739;52.198;20.908;2022-11-20T10:26:22;-0.90;99.90
21163;DHT22;10739;52.198;20.908;2022-11-20T10:29:16;-0.90;99.90
21163;DHT22;10739;52.198;20.908;2022-11-20T10:32:00;-0.90;99.90
21163;DHT22;10739;52.198;20.908;2022-11-20T10:37:26;-0.70;99.90
21163;DHT22;10739;52.198;20.908;2022-11-20T10:43:24;-0.50;99.90
21163;DHT22;10739;52.198;20.908;2022-11-20T10:46:18;-0.60;99.90
21163;DHT22;10739;52.198;20.908;2022-11-20T10:48:50;-0.50;99.90
21163;DHT22;10739;52.198;20.908;2022-11-20T10:55:04;-0.50;99.90
21163;DHT22;10739;52.198;20.908;2022-11-20T10:57:07;-0.50;99.90
21163;DHT22;10739;52.198;20.908;2022-11-20T11:02:52;-0.40;99.90
21163;DHT22;10739;52.198;20.908;2022-11-20T11:08:03;-0.30;99.90
21163;DHT22;10739;52.198;20.908;2022-11-20T11:10:53;-0.30;99.90
21163;DHT22;10739;52.198;20.908;2022-11-20T11:13:29;-0.30;99.90
21163;DHT22;10739;52.198;20.908;2022-11-20T11:15:57;-0.20;99.90
21163;DHT22;10739;52.198;20.908;2022-11-20T11:18:29;-0.20;99.90
21163;DHT22;10739;52.198;20.908;2022-11-20T11:20:59;-0.30;99.90
21163;DHT22;10739;52.198;20.908;2022-11-20T11:23:32;-0.30;99.90
21163;DHT22;10739;52.198;20.908;2022-11-20T11:26:34;-0.20;99.90
21163;DHT22;10739;52.198;20.908;2022-11-20T11:29:03;-0.10;99.90
21163;DHT22;10739;52.198;20.908;2022-11-20T11:31:32;-0.20;99.90
21163;DHT22;10739;52.198;20.908;2022-11-20T11:34:14;-0.10;99.90
21163;DHT22;10739;52.198;20.908;2022-11-20T11:36:49;-0.10;99.90
21163;DHT22;10739;52.198;20.908;2022-11-20T11:39:21;-0.10;99.90
21163;DHT22;10739;52.198;20.908;2022-11-20T11:41:48;0.00;99.90
21163;DHT22;10739;52.198;20.908;2022-11-20T11:44:16;0.00;99.90
21163;DHT22;10739;52.198;20.908;2022-11-20T11:47:25;0.00;99.90
21163;DHT22;10739;52.198;20.908;2022-11-20T11:50:25;0.10;99.90
21163;DHT22;10739;52.198;20.908;2022-11-20T11:58:48;0.20;99.90
21163;DHT22;10739;52.198;20.908;2022-11-20T12:01:28;0.20;99.90
21163;DHT22;10739;52.198;20.908;2022-11-20T12:07:22;0.20;99.90
21163;DHT22;10739;52.198;20.908;2022-11-20T12:10:23;0.20;99.90
21163;DHT22;10739;52.198;20.908;2022-11-20T12:16:16;0.30;99.90
21163;DHT22;10739;52.198;20.908;2022-11-20T12:18:49;0.30;99.90
21163;DHT22;10739;52.198;20.908;2022-11-20T12:29:56;0.10;99.90
21163;DHT22;10739;52.198;20.908;2022-11-20T12:59:58;0.30;99.90
21163;DHT22;10739;52.198;20.908;2022-11-20T13:05:24;0.20;99.90
21163;DHT22;10739;52.198;20.908;2022-11-20T13:08:04;0.20;99.90
21163;DHT22;10739;52.198;20.908;2022-11-20T13:17:17;0.30;99.90
21163;DHT22;10739;52.198;20.908;2022-11-20T13:19:38;0.40;99.90
21163;DHT22;10739;52.198;20.908;2022-11-20T13:22:04;0.40;99.90
21163;DHT22;10739;52.198;20.908;2022-11-20T13:24:32;0.40;99.90
21163;DHT22;10739;52.198;20.908;2022-11-20T13:29:37;0.30;99.90
21163;DHT22;10739;52.198;20.908;2022-11-20T13:32:21;0.30;99.90
21163;DHT22;10739;52.198;20.908;2022-11-20T13:34:55;0.30;99.90
21163;DHT22;10739;52.198;20.908;2022-11-20T13:37:34;0.30;99.90
21163;DHT22;10739;52.198;20.908;2022-11-20T13:40:22;0.30;99.90
21163;DHT22;10739;52.198;20.908;2022-11-20T13:43:00;0.40;99.90
21163;DHT22;10739;52.198;20.908;2022-11-20T13:45:29;0.40;99.90
21163;DHT22;10739;52.198;20.908;2022-11-20T13:48:00;0.40;99.90
21163;DHT22;10739;52.198;20.908;2022-11-20T13:53:25;0.20;99.90
21163;DHT22;10739;52.198;20.908;2022-11-20T13:59:27;0.20;99.90
21163;DHT22;10739;52.198;20.908;2022-11-20T14:02:00;0.20;99.90
21163;DHT22;10739;52.198;20.908;2022-11-20T14:04:30;0.10;99.90
21163;DHT22;10739;52.198;20.908;2022-11-20T14:06:59;0.10;99.90
21163;DHT22;10739;52.198;20.908;2022-11-20T14:09:32;0.00;99.90
21163;DHT22;10739;52.198;20.908;2022-11-20T14:12:00;0.00;99.90
21163;DHT22;10739;52.198;20.908;2022-11-20T14:14:29;0.00;99.90
21163;DHT22;10739;52.198;20.908;2022-11-20T14:17:22;0.00;99.90
21163;DHT22;10739;52.198;20.908;2022-11-20T14:19:52;0.00;99.90
21163;DHT22;10739;52.198;20.908;2022-11-20T14:22:22;0.00;99.90
21163;DHT22;10739;52.198;20.908;2022-11-20T14:27:46;0.00;99.90
21163;DHT22;10739;52.198;20.908;2022-11-20T14:30:22;0.00;99.90
21163;DHT22;10739;52.198;20.908;2022-11-20T14:32:56;0.00;99.90
21163;DHT22;10739;52.198;20.908;2022-11-20T14:35:34;0.00;99.90
21163;DHT22;10739;52.198;20.908;2022-11-20T14:38:03;0.00;99.90
21163;DHT22;10739;52.198;20.908;2022-11-20T14:40:30;-0.10;99.90
21163;DHT22;10739;52.198;20.908;2022-11-20T14:43:00;-0.10;99.90
21163;DHT22;10739;52.198;20.908;2022-11-20T14:45:28;-0.10;99.90
21163;DHT22;10739;52.198;20.908;2022-11-20T14:47:56;-0.20;99.90
21163;DHT22;10739;52.198;20.908;2022-11-20T14:50:26;-0.20;99.90
21163;DHT22;10739;52.198;20.908;2022-11-20T14:52:55;-0.20;99.90
21163;DHT22;10739;52.198;20.908;2022-11-20T14:55:37;-0.20;99.90
21163;DHT22;10739;52.198;20.908;2022-11-20T14:58:24;-0.20;99.90
21163;DHT22;10739;52.198;20.908;2022-11-20T15:01:04;-0.20;99.90
21163;DHT22;10739;52.198;20.908;2022-11-20T15:03:34;-0.30;99.90
21163;DHT22;10739;52.198;20.908;2022-11-20T15:06:10;-0.50;99.90
21163;DHT22;10739;52.198;20.908;2022-11-20T15:08:37;-0.50;99.90
21163;DHT22;10739;52.198;20.908;2022-11-20T15:11:19;-0.50;99.90
21163;DHT22;10739;52.198;20.908;2022-11-20T15:13:51;-0.60;99.90
21163;DHT22;10739;52.198;20.908;2022-11-20T15:16:21;-0.60;99.90
21163;DHT22;10739;52.198;20.908;2022-11-20T15:18:49;-0.60;99.90
21163;DHT22;10739;52.198;20.908;2022-11-20T15:21:18;-0.60;99.90
21163;DHT22;10739;52.198;20.908;2022-11-20T15:23:46;-0.70;99.90
21163;DHT22;10739;52.198;20.908;2022-11-20T15:26:16;-0.80;99.90
21163;DHT22;10739;52.198;20.908;2022-11-20T15:28:49;-0.80;99.90
21163;DHT22;10739;52.198;20.908;2022-11-20T15:31:18;-0.80;99.90
21163;DHT22;10739;52.198;20.908;2022-11-20T15:33:46;-0.90;99.90
21163;DHT22;10739;52.198;20.908;2022-11-20T15:36:13;-1.00;99.90
21163;DHT22;10739;52.198;20.908;2022-11-20T15:38:40;-1.10;99.90
21163;DHT22;10739;52.198;20.908;2022-11-20T15:41:07;-1.20;99.90
21163;DHT22;10739;52.198;20.908;2022-11-20T15:43:34;-1.20;99.90
21163;DHT22;10739;52.198;20.908;2022-11-20T15:46:04;-1.20;99.90
21163;DHT22;10739;52.198;20.908;2022-11-20T15:48:36;-1.30;99.90
21163;DHT22;10739;52.198;20.908;2022-11-20T15:53:52;-1.40;99.90
21163;DHT22;10739;52.198;20.908;2022-11-20T15:56:18;-1.40;99.90
21163;DHT22;10739;52.198;20.908;2022-11-20T15:58:44;-1.50;99.90
21163;DHT22;10739;52.198;20.908;2022-11-20T16:01:16;-1.60;99.90
21163;DHT22;10739;52.198;20.908;2022-11-20T16:03:45;-1.50;99.90
21163;DHT22;10739;52.198;20.908;2022-11-20T16:06:12;-1.60;99.90
21163;DHT22;10739;52.198;20.908;2022-11-20T16:08:38;-1.70;99.90
21163;DHT22;10739;52.198;20.908;2022-11-20T16:11:05;-1.70;99.90
21163;DHT22;10739;52.198;20.908;2022-11-20T16:13:32;-1.80;99.90
21163;DHT22;10739;52.198;20.908;2022-11-20T16:18:54;-1.90;99.90
21163;DHT22;10739;52.198;20.908;2022-11-20T16:21:21;-1.90;99.90
21163;DHT22;10739;52.198;20.908;2022-11-20T16:23:53;-1.90;99.90
21163;DHT22;10739;52.198;20.908;2022-11-20T16:26:19;-2.00;99.90
21163;DHT22;10739;52.198;20.908;2022-11-20T16:28:46;-2.00;99.90
21163;DHT22;10739;52.198;20.908;2022-11-20T16:31:15;-2.10;99.90
21163;DHT22;10739;52.198;20.908;2022-11-20T16:33:42;-2.10;99.90
21163;DHT22;10739;52.198;20.908;2022-11-20T16:36:14;-2.10;99.90
21163;DHT22;10739;52.198;20.908;2022-11-20T16:38:41;-2.10;99.90
21163;DHT22;10739;52.198;20.908;2022-11-20T16:41:08;-2.20;99.90
21163;DHT22;10739;52.198;20.908;2022-11-20T16:44:00;-2.20;99.90
21163;DHT22;10739;52.198;20.908;2022-11-20T16:46:29;-2.30;99.90
21163;DHT22;10739;52.198;20.908;2022-11-20T16:48:59;-2.30;99.90
21163;DHT22;10739;52.198;20.908;2022-11-20T16:51:28;-2.30;99.90
21163;DHT22;10739;52.198;20.908;2022-11-20T16:53:56;-2.30;99.90
21163;DHT22;10739;52.198;20.908;2022-11-20T16:56:25;-2.30;99.90
21163;DHT22;10739;52.198;20.908;2022-11-20T16:58:54;-2.30;99.90
21163;DHT22;10739;52.198;20.908;2022-11-20T17:01:24;-2.30;99.90
21163;DHT22;10739;52.198;20.908;2022-11-20T17:03:58;-2.30;99.90
21163;DHT22;10739;52.198;20.908;2022-11-20T17:06:28;-2.30;99.90
21163;DHT22;10739;52.198;20.908;2022-11-20T17:08:58;-2.30;99.90
21163;DHT22;10739;52.198;20.908;2022-11-20T17:11:26;-2.30;99.90
21163;DHT22;10739;52.198;20.908;2022-11-20T17:13:57;-2.40;99.90
21163;DHT22;10739;52.198;20.908;2022-11-20T17:16:25;-2.40;99.90
21163;DHT22;10739;52.198;20.908;2022-11-20T17:18:54;-2.40;99.90
21163;DHT22;10739;52.198;20.908;2022-11-20T17:21:21;-2.40;99.90
21163;DHT22;10739;52.198;20.908;2022-11-20T17:23:48;-2.50;99.90
21163;DHT22;10739;52.198;20.908;2022-11-20T17:26:16;-2.50;99.90
21163;DHT22;10739;52.198;20.908;2022-11-20T17:28:45;-2.50;99.90
21163;DHT22;10739;52.198;20.908;2022-11-20T17:31:16;-2.50;99.90
21163;DHT22;10739;52.198;20.908;2022-11-20T17:33:44;-2.50;99.90